sensor_id;sensor_type;location;lat;lon;timestamp;P1;durP1;ratioP1;P2;durP2;ratioP2
42282;SDS011;28237;47.954;21.730;2022-09-09T00:04:29;4.72;;;2.97;;
42282;SDS011;28237;47.954;21.730;2022-09-09T00:07:03;5.20;;;3.08;;
42282;SDS011;28237;47.954;21.730;2022-09-09T00:09:53;8.93;;;3.50;;
42282;SDS011;28237;47.954;21.730;2022-09-09T00:12:17;6.30;;;2.97;;
42282;SDS011;28237;47.954;21.730;2022-09-09T00:14:48;2.17;;;1.58;;
42282;SDS011;28237;47.954;21.730;2022-09-09T00:17:33;3.45;;;1.75;;
42282;SDS011;28237;47.954;21.730;2022-09-09T00:22:26;4.73;;;2.80;;
42282;SDS011;28237;47.954;21.730;2022-09-09T00:24:53;4.10;;;1.83;;
42282;SDS011;28237;47.954;21.730;2022-09-09T00:27:21;3.60;;;2.05;;
42282;SDS011;28237;47.954;21.730;2022-09-09T00:32:20;4.32;;;1.48;;
42282;SDS011;28237;47.954;21.730;2022-09-09T00:34:56;3.65;;;1.95;;
42282;SDS011;28237;47.954;21.730;2022-09-09T00:37:22;2.53;;;1.40;;
42282;SDS011;28237;47.954;21.730;2022-09-09T00:39:50;4.45;;;1.63;;
42282;SDS011;28237;47.954;21.730;2022-09-09T00:42:23;3.55;;;1.42;;
42282;SDS011;28237;47.954;21.730;2022-09-09T00:44:53;5.07;;;1.55;;
42282;SDS011;28237;47.954;21.730;2022-09-09T00:50:34;4.03;;;1.42;;
42282;SDS011;28237;47.954;21.730;2022-09-09T00:52:40;3.05;;;1.67;;
42282;SDS011;28237;47.954;21.730;2022-09-09T00:55:16;3.78;;;1.60;;
42282;SDS011;28237;47.954;21.730;2022-09-09T00:57:44;6.53;;;3.22;;
42282;SDS011;28237;47.954;21.730;2022-09-09T01:05:30;3.55;;;2.97;;
42282;SDS011;28237;47.954;21.730;2022-09-09T01:08:00;6.57;;;2.90;;
42282;SDS011;28237;47.954;21.730;2022-09-09T01:10:36;3.00;;;2.58;;
42282;SDS011;28237;47.954;21.730;2022-09-09T01:13:04;4.55;;;2.80;;
42282;SDS011;28237;47.954;21.730;2022-09-09T01:15:33;3.50;;;3.20;;
42282;SDS011;28237;47.954;21.730;2022-09-09T01:18:12;7.13;;;3.28;;
42282;SDS011;28237;47.954;21.730;2022-09-09T01:28:30;2.58;;;2.38;;
42282;SDS011;28237;47.954;21.730;2022-09-09T01:30:56;3.38;;;3.08;;
42282;SDS011;28237;47.954;21.730;2022-09-09T01:33:22;2.85;;;2.50;;
42282;SDS011;28237;47.954;21.730;2022-09-09T01:35:52;2.70;;;2.10;;
42282;SDS011;28237;47.954;21.730;2022-09-09T01:38:21;2.20;;;2.00;;
42282;SDS011;28237;47.954;21.730;2022-09-09T01:40:47;1.77;;;1.38;;
42282;SDS011;28237;47.954;21.730;2022-09-09T01:43:13;4.27;;;1.60;;
42282;SDS011;28237;47.954;21.730;2022-09-09T01:45:39;2.25;;;1.70;;
42282;SDS011;28237;47.954;21.730;2022-09-09T01:48:04;2.47;;;1.63;;
42282;SDS011;28237;47.954;21.730;2022-09-09T01:50:29;3.47;;;2.03;;
42282;SDS011;28237;47.954;21.730;2022-09-09T01:52:58;3.55;;;2.38;;
42282;SDS011;28237;47.954;21.730;2022-09-09T01:55:31;3.53;;;2.28;;
42282;SDS011;28237;47.954;21.730;2022-09-09T02:00:34;2.17;;;1.98;;
42282;SDS011;28237;47.954;21.730;2022-09-09T02:03:05;2.60;;;2.03;;
42282;SDS011;28237;47.954;21.730;2022-09-09T02:05:40;4.22;;;2.03;;
42282;SDS011;28237;47.954;21.730;2022-09-09T02:10:32;2.88;;;1.80;;
42282;SDS011;28237;47.954;21.730;2022-09-09T02:13:18;4.25;;;1.73;;
42282;SDS011;28237;47.954;21.730;2022-09-09T02:18:13;1.50;;;1.40;;
42282;SDS011;28237;47.954;21.730;2022-09-09T02:20:39;1.50;;;1.40;;
42282;SDS011;28237;47.954;21.730;2022-09-09T02:23:06;2.25;;;1.98;;
42282;SDS011;28237;47.954;21.730;2022-09-09T02:25:33;6.20;;;1.80;;
42282;SDS011;28237;47.954;21.730;2022-09-09T02:28:00;2.97;;;2.20;;
42282;SDS011;28237;47.954;21.730;2022-09-09T02:30:27;2.40;;;2.20;;
42282;SDS011;28237;47.954;21.730;2022-09-09T02:32:54;3.45;;;2.33;;
42282;SDS011;28237;47.954;21.730;2022-09-09T02:35:24;4.75;;;2.58;;
42282;SDS011;28237;47.954;21.730;2022-09-09T02:37:51;3.03;;;2.72;;
42282;SDS011;28237;47.954;21.730;2022-09-09T02:40:17;4.47;;;2.63;;
42282;SDS011;28237;47.954;21.730;2022-09-09T02:42:44;3.03;;;2.30;;
42282;SDS011;28237;47.954;21.730;2022-09-09T02:45:10;2.83;;;2.58;;
42282;SDS011;28237;47.954;21.730;2022-09-09T02:47:38;2.35;;;2.15;;
42282;SDS011;28237;47.954;21.730;2022-09-09T02:50:16;2.28;;;2.08;;
42282;SDS011;28237;47.954;21.730;2022-09-09T02:55:29;2.47;;;2.28;;
42282;SDS011;28237;47.954;21.730;2022-09-09T02:57:59;2.47;;;2.28;;
42282;SDS011;28237;47.954;21.730;2022-09-09T03:00:27;2.40;;;2.22;;
42282;SDS011;28237;47.954;21.730;2022-09-09T03:02:52;3.22;;;2.50;;
42282;SDS011;28237;47.954;21.730;2022-09-09T03:05:19;2.38;;;1.98;;
42282;SDS011;28237;47.954;21.730;2022-09-09T03:07:44;3.33;;;3.13;;
42282;SDS011;28237;47.954;21.730;2022-09-09T03:10:09;2.50;;;2.30;;
42282;SDS011;28237;47.954;21.730;2022-09-09T03:12:35;2.70;;;2.35;;
42282;SDS011;28237;47.954;21.730;2022-09-09T03:15:00;2.30;;;2.20;;
42282;SDS011;28237;47.954;21.730;2022-09-09T03:17:26;2.53;;;2.23;;
42282;SDS011;28237;47.954;21.730;2022-09-09T03:19:53;3.13;;;2.42;;
42282;SDS011;28237;47.954;21.730;2022-09-09T03:22:19;3.03;;;2.78;;
42282;SDS011;28237;47.954;21.730;2022-09-09T03:24:45;2.28;;;2.08;;
42282;SDS011;28237;47.954;21.730;2022-09-09T03:27:11;4.70;;;2.60;;
42282;SDS011;28237;47.954;21.730;2022-09-09T03:29:37;5.50;;;2.90;;
42282;SDS011;28237;47.954;21.730;2022-09-09T03:32:02;3.63;;;2.50;;
42282;SDS011;28237;47.954;21.730;2022-09-09T03:34:27;6.50;;;2.60;;
42282;SDS011;28237;47.954;21.730;2022-09-09T03:36:52;2.97;;;2.77;;
42282;SDS011;28237;47.954;21.730;2022-09-09T03:39:18;4.00;;;2.80;;
42282;SDS011;28237;47.954;21.730;2022-09-09T03:41:43;3.50;;;2.73;;
42282;SDS011;28237;47.954;21.730;2022-09-09T03:44:11;2.95;;;2.75;;
42282;SDS011;28237;47.954;21.730;2022-09-09T03:46:36;3.20;;;2.67;;
42282;SDS011;28237;47.954;21.730;2022-09-09T03:49:03;2.78;;;2.58;;
42282;SDS011;28237;47.954;21.730;2022-09-09T03:51:28;3.27;;;2.97;;
42282;SDS011;28237;47.954;21.730;2022-09-09T03:53:53;2.77;;;2.57;;
42282;SDS011;28237;47.954;21.730;2022-09-09T03:56:20;5.47;;;3.22;;
42282;SDS011;28237;47.954;21.730;2022-09-09T03:58:46;2.75;;;2.55;;
42282;SDS011;28237;47.954;21.730;2022-09-09T04:01:12;2.17;;;2.07;;
42282;SDS011;28237;47.954;21.730;2022-09-09T04:03:42;3.15;;;2.63;;
42282;SDS011;28237;47.954;21.730;2022-09-09T04:06:08;3.35;;;3.05;;
42282;SDS011;28237;47.954;21.730;2022-09-09T04:08:34;3.53;;;3.30;;
42282;SDS011;28237;47.954;21.730;2022-09-09T04:11:00;3.10;;;2.90;;
42282;SDS011;28237;47.954;21.730;2022-09-09T04:13:27;4.18;;;3.15;;
42282;SDS011;28237;47.954;21.730;2022-09-09T04:15:59;5.05;;;3.72;;
42282;SDS011;28237;47.954;21.730;2022-09-09T04:18:25;3.80;;;3.50;;
42282;SDS011;28237;47.954;21.730;2022-09-09T04:20:51;4.50;;;3.40;;
42282;SDS011;28237;47.954;21.730;2022-09-09T04:23:18;5.72;;;3.72;;
42282;SDS011;28237;47.954;21.730;2022-09-09T04:25:47;5.07;;;4.07;;
42282;SDS011;28237;47.954;21.730;2022-09-09T04:28:13;3.50;;;3.20;;
42282;SDS011;28237;47.954;21.730;2022-09-09T04:30:39;3.78;;;3.47;;
42282;SDS011;28237;47.954;21.730;2022-09-09T04:33:05;3.35;;;3.08;;
42282;SDS011;28237;47.954;21.730;2022-09-09T04:35:31;3.72;;;3.35;;
42282;SDS011;28237;47.954;21.730;2022-09-09T04:37:56;3.87;;;3.57;;
42282;SDS011;28237;47.954;21.730;2022-09-09T04:40:21;3.70;;;3.47;;
42282;SDS011;28237;47.954;21.730;2022-09-09T04:42:47;3.63;;;3.38;;
42282;SDS011;28237;47.954;21.730;2022-09-09T04:45:15;4.50;;;3.83;;
42282;SDS011;28237;47.954;21.730;2022-09-09T04:47:40;4.70;;;4.30;;
42282;SDS011;28237;47.954;21.730;2022-09-09T04:50:06;5.30;;;4.40;;
42282;SDS011;28237;47.954;21.730;2022-09-09T04:52:33;5.07;;;4.57;;
42282;SDS011;28237;47.954;21.730;2022-09-09T04:54:58;4.47;;;4.10;;
42282;SDS011;28237;47.954;21.730;2022-09-09T04:57:24;4.73;;;4.33;;
42282;SDS011;28237;47.954;21.730;2022-09-09T04:59:49;4.50;;;4.10;;
42282;SDS011;28237;47.954;21.730;2022-09-09T05:02:15;4.70;;;4.30;;
42282;SDS011;28237;47.954;21.730;2022-09-09T05:04:40;4.55;;;3.90;;
42282;SDS011;28237;47.954;21.730;2022-09-09T05:07:05;4.90;;;4.50;;
42282;SDS011;28237;47.954;21.730;2022-09-09T05:09:31;4.00;;;3.70;;
42282;SDS011;28237;47.954;21.730;2022-09-09T05:11:56;5.47;;;4.93;;
42282;SDS011;28237;47.954;21.730;2022-09-09T05:14:23;5.43;;;4.72;;
42282;SDS011;28237;47.954;21.730;2022-09-09T05:16:48;5.40;;;4.95;;
42282;SDS011;28237;47.954;21.730;2022-09-09T05:19:15;6.43;;;5.00;;
42282;SDS011;28237;47.954;21.730;2022-09-09T05:21:40;5.22;;;4.75;;
42282;SDS011;28237;47.954;21.730;2022-09-09T05:24:06;5.50;;;5.00;;
42282;SDS011;28237;47.954;21.730;2022-09-09T05:26:32;6.00;;;5.50;;
42282;SDS011;28237;47.954;21.730;2022-09-09T05:28:57;5.50;;;5.05;;
42282;SDS011;28237;47.954;21.730;2022-09-09T05:31:24;5.30;;;4.80;;
42282;SDS011;28237;47.954;21.730;2022-09-09T05:33:53;5.53;;;5.03;;
42282;SDS011;28237;47.954;21.730;2022-09-09T05:36:19;5.63;;;4.93;;
42282;SDS011;28237;47.954;21.730;2022-09-09T05:38:45;5.80;;;5.10;;
42282;SDS011;28237;47.954;21.730;2022-09-09T05:41:11;6.40;;;5.78;;
42282;SDS011;28237;47.954;21.730;2022-09-09T05:43:37;7.10;;;6.40;;
42282;SDS011;28237;47.954;21.730;2022-09-09T05:46:04;6.53;;;6.03;;
42282;SDS011;28237;47.954;21.730;2022-09-09T05:48:33;6.57;;;5.97;;
42282;SDS011;28237;47.954;21.730;2022-09-09T05:50:59;4.75;;;4.40;;
42282;SDS011;28237;47.954;21.730;2022-09-09T05:53:25;5.20;;;4.70;;
42282;SDS011;28237;47.954;21.730;2022-09-09T05:55:57;5.47;;;5.07;;
42282;SDS011;28237;47.954;21.730;2022-09-09T05:58:22;6.65;;;5.97;;
42282;SDS011;28237;47.954;21.730;2022-09-09T06:00:49;5.80;;;5.20;;
42282;SDS011;28237;47.954;21.730;2022-09-09T06:03:15;5.25;;;4.85;;
42282;SDS011;28237;47.954;21.730;2022-09-09T06:05:41;6.13;;;5.53;;
42282;SDS011;28237;47.954;21.730;2022-09-09T06:08:07;5.90;;;5.40;;
42282;SDS011;28237;47.954;21.730;2022-09-09T06:10:32;7.53;;;5.30;;
42282;SDS011;28237;47.954;21.730;2022-09-09T06:12:59;4.93;;;4.47;;
42282;SDS011;28237;47.954;21.730;2022-09-09T06:15:24;5.72;;;5.22;;
42282;SDS011;28237;47.954;21.730;2022-09-09T06:17:53;5.60;;;5.10;;
42282;SDS011;28237;47.954;21.730;2022-09-09T06:20:19;5.55;;;5.10;;
42282;SDS011;28237;47.954;21.730;2022-09-09T06:22:45;6.18;;;5.53;;
42282;SDS011;28237;47.954;21.730;2022-09-09T06:25:11;5.57;;;5.07;;
42282;SDS011;28237;47.954;21.730;2022-09-09T06:27:37;5.78;;;5.25;;
42282;SDS011;28237;47.954;21.730;2022-09-09T06:30:02;5.93;;;5.47;;
42282;SDS011;28237;47.954;21.730;2022-09-09T06:32:28;5.47;;;5.00;;
42282;SDS011;28237;47.954;21.730;2022-09-09T06:34:53;5.80;;;5.30;;
42282;SDS011;28237;47.954;21.730;2022-09-09T06:37:19;6.10;;;5.60;;
42282;SDS011;28237;47.954;21.730;2022-09-09T06:39:45;6.45;;;5.82;;
42282;SDS011;28237;47.954;21.730;2022-09-09T06:42:10;6.10;;;5.33;;
42282;SDS011;28237;47.954;21.730;2022-09-09T06:44:35;7.77;;;5.67;;
42282;SDS011;28237;47.954;21.730;2022-09-09T06:47:01;5.70;;;5.20;;
42282;SDS011;28237;47.954;21.730;2022-09-09T06:49:26;6.10;;;5.45;;
42282;SDS011;28237;47.954;21.730;2022-09-09T06:51:51;7.00;;;5.27;;
42282;SDS011;28237;47.954;21.730;2022-09-09T06:54:17;5.73;;;5.23;;
42282;SDS011;28237;47.954;21.730;2022-09-09T06:56:43;6.10;;;5.60;;
42282;SDS011;28237;47.954;21.730;2022-09-09T06:59:10;6.60;;;5.35;;
42282;SDS011;28237;47.954;21.730;2022-09-09T07:01:36;6.80;;;6.10;;
42282;SDS011;28237;47.954;21.730;2022-09-09T07:04:03;6.97;;;6.03;;
42282;SDS011;28237;47.954;21.730;2022-09-09T07:06:29;7.75;;;6.95;;
42282;SDS011;28237;47.954;21.730;2022-09-09T07:08:56;8.88;;;6.72;;
42282;SDS011;28237;47.954;21.730;2022-09-09T07:11:23;7.95;;;6.13;;
42282;SDS011;28237;47.954;21.730;2022-09-09T07:13:49;6.75;;;6.00;;
42282;SDS011;28237;47.954;21.730;2022-09-09T07:16:16;8.90;;;6.80;;
42282;SDS011;28237;47.954;21.730;2022-09-09T07:18:42;7.30;;;5.78;;
42282;SDS011;28237;47.954;21.730;2022-09-09T07:21:09;7.80;;;5.65;;
42282;SDS011;28237;47.954;21.730;2022-09-09T07:23:34;8.40;;;5.82;;
42282;SDS011;28237;47.954;21.730;2022-09-09T07:26:06;6.15;;;5.70;;
42282;SDS011;28237;47.954;21.730;2022-09-09T07:28:32;7.07;;;6.47;;
42282;SDS011;28237;47.954;21.730;2022-09-09T07:30:58;6.60;;;6.00;;
42282;SDS011;28237;47.954;21.730;2022-09-09T07:33:25;9.02;;;8.05;;
42282;SDS011;28237;47.954;21.730;2022-09-09T07:35:50;7.88;;;6.75;;
42282;SDS011;28237;47.954;21.730;2022-09-09T07:38:15;10.57;;;6.55;;
42282;SDS011;28237;47.954;21.730;2022-09-09T07:40:41;7.65;;;6.00;;
42282;SDS011;28237;47.954;21.730;2022-09-09T07:43:06;7.88;;;7.00;;
42282;SDS011;28237;47.954;21.730;2022-09-09T07:45:33;7.57;;;6.90;;
42282;SDS011;28237;47.954;21.730;2022-09-09T07:47:58;5.72;;;5.25;;
42282;SDS011;28237;47.954;21.730;2022-09-09T07:50:24;6.80;;;6.10;;
42282;SDS011;28237;47.954;21.730;2022-09-09T07:52:50;7.17;;;6.13;;
42282;SDS011;28237;47.954;21.730;2022-09-09T07:55:15;8.90;;;6.40;;
42282;SDS011;28237;47.954;21.730;2022-09-09T07:57:41;7.03;;;6.40;;
42282;SDS011;28237;47.954;21.730;2022-09-09T08:00:06;8.00;;;6.30;;
42282;SDS011;28237;47.954;21.730;2022-09-09T08:02:32;7.10;;;6.43;;
42282;SDS011;28237;47.954;21.730;2022-09-09T08:04:57;7.53;;;5.95;;
42282;SDS011;28237;47.954;21.730;2022-09-09T08:07:22;7.30;;;6.47;;
42282;SDS011;28237;47.954;21.730;2022-09-09T08:09:48;6.80;;;6.20;;
42282;SDS011;28237;47.954;21.730;2022-09-09T08:12:14;7.57;;;6.40;;
42282;SDS011;28237;47.954;21.730;2022-09-09T08:14:39;6.77;;;6.10;;
42282;SDS011;28237;47.954;21.730;2022-09-09T08:17:05;7.05;;;6.43;;
42282;SDS011;28237;47.954;21.730;2022-09-09T08:19:30;7.57;;;6.72;;
42282;SDS011;28237;47.954;21.730;2022-09-09T08:21:58;6.47;;;5.88;;
42282;SDS011;28237;47.954;21.730;2022-09-09T08:24:24;8.07;;;6.22;;
42282;SDS011;28237;47.954;21.730;2022-09-09T08:26:49;6.57;;;5.97;;
42282;SDS011;28237;47.954;21.730;2022-09-09T08:29:14;6.40;;;5.80;;
42282;SDS011;28237;47.954;21.730;2022-09-09T08:31:44;6.43;;;5.82;;
42282;SDS011;28237;47.954;21.730;2022-09-09T08:34:10;6.57;;;5.97;;
42282;SDS011;28237;47.954;21.730;2022-09-09T08:36:37;8.43;;;6.30;;
42282;SDS011;28237;47.954;21.730;2022-09-09T08:39:03;6.22;;;5.50;;
42282;SDS011;28237;47.954;21.730;2022-09-09T08:46:49;5.82;;;5.32;;
42282;SDS011;28237;47.954;21.730;2022-09-09T08:51:45;6.35;;;5.68;;
42282;SDS011;28237;47.954;21.730;2022-09-09T08:54:10;7.38;;;5.30;;
42282;SDS011;28237;47.954;21.730;2022-09-09T08:56:36;6.10;;;5.53;;
42282;SDS011;28237;47.954;21.730;2022-09-09T08:59:01;5.70;;;5.18;;
42282;SDS011;28237;47.954;21.730;2022-09-09T09:01:35;6.88;;;6.20;;
42282;SDS011;28237;47.954;21.730;2022-09-09T09:06:50;7.68;;;6.85;;
42282;SDS011;28237;47.954;21.730;2022-09-09T09:11:53;5.70;;;5.20;;
42282;SDS011;28237;47.954;21.730;2022-09-09T09:14:26;7.47;;;6.38;;
42282;SDS011;28237;47.954;21.730;2022-09-09T09:16:54;8.82;;;6.50;;
42282;SDS011;28237;47.954;21.730;2022-09-09T09:19:21;7.28;;;6.57;;
42282;SDS011;28237;47.954;21.730;2022-09-09T09:21:50;6.40;;;5.85;;
42282;SDS011;28237;47.954;21.730;2022-09-09T09:24:19;6.22;;;5.70;;
42282;SDS011;28237;47.954;21.730;2022-09-09T09:26:44;6.20;;;5.63;;
42282;SDS011;28237;47.954;21.730;2022-09-09T09:29:28;8.00;;;5.43;;
42282;SDS011;28237;47.954;21.730;2022-09-09T09:31:56;7.20;;;5.83;;
42282;SDS011;28237;47.954;21.730;2022-09-09T09:34:24;6.47;;;5.88;;
42282;SDS011;28237;47.954;21.730;2022-09-09T09:36:53;6.63;;;6.03;;
42282;SDS011;28237;47.954;21.730;2022-09-09T09:39:23;6.50;;;5.82;;
42282;SDS011;28237;47.954;21.730;2022-09-09T09:41:48;5.85;;;5.35;;
42282;SDS011;28237;47.954;21.730;2022-09-09T09:44:30;6.18;;;5.68;;
42282;SDS011;28237;47.954;21.730;2022-09-09T09:47:06;6.22;;;5.68;;
42282;SDS011;28237;47.954;21.730;2022-09-09T09:49:32;6.53;;;5.82;;
42282;SDS011;28237;47.954;21.730;2022-09-09T09:52:01;5.47;;;5.07;;
42282;SDS011;28237;47.954;21.730;2022-09-09T09:54:31;6.18;;;5.70;;
42282;SDS011;28237;47.954;21.730;2022-09-09T09:57:07;7.78;;;6.50;;
42282;SDS011;28237;47.954;21.730;2022-09-09T09:59:34;6.57;;;5.97;;
42282;SDS011;28237;47.954;21.730;2022-09-09T10:02:21;5.07;;;4.68;;
42282;SDS011;28237;47.954;21.730;2022-09-09T10:04:45;6.13;;;5.53;;
42282;SDS011;28237;47.954;21.730;2022-09-09T10:07:20;9.98;;;6.63;;
42282;SDS011;28237;47.954;21.730;2022-09-09T10:09:47;5.25;;;4.75;;
42282;SDS011;28237;47.954;21.730;2022-09-09T10:22:34;7.70;;;5.57;;
42282;SDS011;28237;47.954;21.730;2022-09-09T10:38:16;5.05;;;3.95;;
42282;SDS011;28237;47.954;21.730;2022-09-09T10:40:43;6.07;;;5.57;;
42282;SDS011;28237;47.954;21.730;2022-09-09T10:46:03;4.50;;;4.20;;
42282;SDS011;28237;47.954;21.730;2022-09-09T10:48:35;4.30;;;3.90;;
42282;SDS011;28237;47.954;21.730;2022-09-09T10:56:01;5.70;;;4.68;;
42282;SDS011;28237;47.954;21.730;2022-09-09T10:58:35;3.63;;;3.40;;
42282;SDS011;28237;47.954;21.730;2022-09-09T11:01:03;4.60;;;4.18;;
42282;SDS011;28237;47.954;21.730;2022-09-09T11:03:29;4.90;;;4.38;;
42282;SDS011;28237;47.954;21.730;2022-09-09T11:06:04;8.68;;;5.00;;
42282;SDS011;28237;47.954;21.730;2022-09-09T11:08:30;5.05;;;4.53;;
42282;SDS011;28237;47.954;21.730;2022-09-09T11:18:51;5.40;;;5.00;;
42282;SDS011;28237;47.954;21.730;2022-09-09T11:21:23;7.47;;;4.20;;
42282;SDS011;28237;47.954;21.730;2022-09-09T11:23:52;3.47;;;3.22;;
42282;SDS011;28237;47.954;21.730;2022-09-09T11:26:21;4.20;;;3.42;;
42282;SDS011;28237;47.954;21.730;2022-09-09T11:39:31;5.87;;;3.47;;
42282;SDS011;28237;47.954;21.730;2022-09-09T11:44:37;3.10;;;2.90;;
42282;SDS011;28237;47.954;21.730;2022-09-09T11:47:03;4.78;;;3.42;;
42282;SDS011;28237;47.954;21.730;2022-09-09T11:49:29;3.60;;;3.30;;
42282;SDS011;28237;47.954;21.730;2022-09-09T11:52:12;5.10;;;4.55;;
42282;SDS011;28237;47.954;21.730;2022-09-09T11:54:46;4.60;;;4.20;;
42282;SDS011;28237;47.954;21.730;2022-09-09T11:57:17;4.18;;;3.78;;
42282;SDS011;28237;47.954;21.730;2022-09-09T11:59:51;3.55;;;3.30;;
42282;SDS011;28237;47.954;21.730;2022-09-09T12:02:27;3.75;;;3.50;;
42282;SDS011;28237;47.954;21.730;2022-09-09T12:07:35;8.60;;;4.25;;
42282;SDS011;28237;47.954;21.730;2022-09-09T12:10:05;4.22;;;3.78;;
42282;SDS011;28237;47.954;21.730;2022-09-09T12:12:38;3.35;;;3.13;;
42282;SDS011;28237;47.954;21.730;2022-09-09T12:15:17;2.90;;;2.70;;
42282;SDS011;28237;47.954;21.730;2022-09-09T12:17:49;2.97;;;2.78;;
42282;SDS011;28237;47.954;21.730;2022-09-09T12:20:22;2.65;;;2.53;;
42282;SDS011;28237;47.954;21.730;2022-09-09T12:25:35;5.77;;;3.07;;
42282;SDS011;28237;47.954;21.730;2022-09-09T12:30:48;2.80;;;2.60;;
42282;SDS011;28237;47.954;21.730;2022-09-09T12:33:16;2.83;;;2.63;;
42282;SDS011;28237;47.954;21.730;2022-09-09T12:35:42;3.15;;;2.85;;
42282;SDS011;28237;47.954;21.730;2022-09-09T12:38:10;2.80;;;2.60;;
42282;SDS011;28237;47.954;21.730;2022-09-09T12:40:37;2.78;;;2.55;;
42282;SDS011;28237;47.954;21.730;2022-09-09T12:43:17;4.03;;;2.33;;
42282;SDS011;28237;47.954;21.730;2022-09-09T12:45:44;2.88;;;2.40;;
42282;SDS011;28237;47.954;21.730;2022-09-09T12:48:10;4.50;;;2.20;;
42282;SDS011;28237;47.954;21.730;2022-09-09T12:50:44;2.72;;;2.53;;
42282;SDS011;28237;47.954;21.730;2022-09-09T12:53:33;2.70;;;2.50;;
42282;SDS011;28237;47.954;21.730;2022-09-09T12:55:57;2.50;;;2.30;;
42282;SDS011;28237;47.954;21.730;2022-09-09T12:58:23;2.05;;;1.95;;
42282;SDS011;28237;47.954;21.730;2022-09-09T13:00:50;2.30;;;1.83;;
42282;SDS011;28237;47.954;21.730;2022-09-09T13:03:17;2.10;;;1.98;;
42282;SDS011;28237;47.954;21.730;2022-09-09T13:05:43;2.10;;;1.90;;
42282;SDS011;28237;47.954;21.730;2022-09-09T13:08:09;2.97;;;1.77;;
42282;SDS011;28237;47.954;21.730;2022-09-09T13:13:15;5.80;;;1.40;;
42282;SDS011;28237;47.954;21.730;2022-09-09T13:15:47;1.75;;;1.65;;
42282;SDS011;28237;47.954;21.730;2022-09-09T13:18:13;2.95;;;1.90;;
42282;SDS011;28237;47.954;21.730;2022-09-09T13:20:38;1.80;;;1.70;;
42282;SDS011;28237;47.954;21.730;2022-09-09T13:23:04;1.92;;;1.83;;
42282;SDS011;28237;47.954;21.730;2022-09-09T13:25:30;1.90;;;1.80;;
42282;SDS011;28237;47.954;21.730;2022-09-09T13:27:56;2.87;;;2.67;;
42282;SDS011;28237;47.954;21.730;2022-09-09T13:33:18;1.88;;;1.60;;
42282;SDS011;28237;47.954;21.730;2022-09-09T13:35:46;4.35;;;1.88;;
42282;SDS011;28237;47.954;21.730;2022-09-09T13:38:13;2.05;;;1.95;;
42282;SDS011;28237;47.954;21.730;2022-09-09T13:40:39;1.83;;;1.70;;
42282;SDS011;28237;47.954;21.730;2022-09-09T13:43:04;3.63;;;1.87;;
42282;SDS011;28237;47.954;21.730;2022-09-09T13:45:30;2.10;;;2.00;;
42282;SDS011;28237;47.954;21.730;2022-09-09T13:47:55;4.15;;;2.10;;
42282;SDS011;28237;47.954;21.730;2022-09-09T13:50:25;2.03;;;1.77;;
42282;SDS011;28237;47.954;21.730;2022-09-09T13:52:54;5.38;;;2.40;;
42282;SDS011;28237;47.954;21.730;2022-09-09T13:55:21;1.85;;;1.73;;
42282;SDS011;28237;47.954;21.730;2022-09-09T13:57:50;1.50;;;1.40;;
42282;SDS011;28237;47.954;21.730;2022-09-09T14:00:16;1.92;;;1.83;;
42282;SDS011;28237;47.954;21.730;2022-09-09T14:02:41;5.15;;;1.90;;
42282;SDS011;28237;47.954;21.730;2022-09-09T14:05:09;2.30;;;2.13;;
42282;SDS011;28237;47.954;21.730;2022-09-09T14:07:34;2.53;;;2.00;;
42282;SDS011;28237;47.954;21.730;2022-09-09T14:09:59;6.50;;;2.00;;
42282;SDS011;28237;47.954;21.730;2022-09-09T14:12:25;5.30;;;1.92;;
42282;SDS011;28237;47.954;21.730;2022-09-09T14:14:50;2.50;;;2.00;;
42282;SDS011;28237;47.954;21.730;2022-09-09T14:17:15;2.10;;;1.80;;
42282;SDS011;28237;47.954;21.730;2022-09-09T14:19:41;2.97;;;1.80;;
42282;SDS011;28237;47.954;21.730;2022-09-09T14:22:06;2.03;;;1.67;;
42282;SDS011;28237;47.954;21.730;2022-09-09T14:24:31;5.85;;;2.15;;
42282;SDS011;28237;47.954;21.730;2022-09-09T14:26:57;1.70;;;1.60;;
42282;SDS011;28237;47.954;21.730;2022-09-09T14:29:22;1.83;;;1.70;;
42282;SDS011;28237;47.954;21.730;2022-09-09T14:31:47;3.20;;;2.10;;
42282;SDS011;28237;47.954;21.730;2022-09-09T14:34:12;2.65;;;2.20;;
42282;SDS011;28237;47.954;21.730;2022-09-09T14:36:39;1.88;;;1.70;;
42282;SDS011;28237;47.954;21.730;2022-09-09T14:39:05;2.53;;;2.33;;
42282;SDS011;28237;47.954;21.730;2022-09-09T14:41:30;2.30;;;2.15;;
42282;SDS011;28237;47.954;21.730;2022-09-09T14:43:55;2.20;;;2.00;;
42282;SDS011;28237;47.954;21.730;2022-09-09T14:46:21;2.25;;;2.05;;
42282;SDS011;28237;47.954;21.730;2022-09-09T14:48:46;1.77;;;1.67;;
42282;SDS011;28237;47.954;21.730;2022-09-09T14:51:18;2.90;;;2.03;;
42282;SDS011;28237;47.954;21.730;2022-09-09T14:53:44;2.38;;;2.17;;
42282;SDS011;28237;47.954;21.730;2022-09-09T14:58:35;4.00;;;1.73;;
42282;SDS011;28237;47.954;21.730;2022-09-09T15:01:04;1.50;;;1.40;;
42282;SDS011;28237;47.954;21.730;2022-09-09T15:03:29;2.75;;;2.30;;
42282;SDS011;28237;47.954;21.730;2022-09-09T15:05:55;1.57;;;1.30;;
42282;SDS011;28237;47.954;21.730;2022-09-09T15:08:20;2.23;;;2.00;;
42282;SDS011;28237;47.954;21.730;2022-09-09T15:10:45;3.27;;;1.80;;
42282;SDS011;28237;47.954;21.730;2022-09-09T15:13:12;1.50;;;1.40;;
42282;SDS011;28237;47.954;21.730;2022-09-09T15:15:39;3.08;;;1.98;;
42282;SDS011;28237;47.954;21.730;2022-09-09T15:18:06;2.67;;;2.47;;
42282;SDS011;28237;47.954;21.730;2022-09-09T15:20:31;3.40;;;1.67;;
42282;SDS011;28237;47.954;21.730;2022-09-09T15:22:56;1.97;;;1.87;;
42282;SDS011;28237;47.954;21.730;2022-09-09T15:25:22;2.03;;;1.70;;
42282;SDS011;28237;47.954;21.730;2022-09-09T15:27:47;1.87;;;1.67;;
42282;SDS011;28237;47.954;21.730;2022-09-09T15:30:12;3.42;;;1.55;;
42282;SDS011;28237;47.954;21.730;2022-09-09T15:32:38;1.58;;;1.48;;
42282;SDS011;28237;47.954;21.730;2022-09-09T15:35:04;1.67;;;1.58;;
42282;SDS011;28237;47.954;21.730;2022-09-09T15:37:30;2.95;;;1.80;;
42282;SDS011;28237;47.954;21.730;2022-09-09T15:39:55;2.80;;;1.52;;
42282;SDS011;28237;47.954;21.730;2022-09-09T15:42:23;2.20;;;2.00;;
42282;SDS011;28237;47.954;21.730;2022-09-09T15:44:50;1.45;;;1.35;;
42282;SDS011;28237;47.954;21.730;2022-09-09T15:47:15;1.90;;;1.77;;
42282;SDS011;28237;47.954;21.730;2022-09-09T15:49:41;2.50;;;1.42;;
42282;SDS011;28237;47.954;21.730;2022-09-09T15:52:06;1.83;;;1.73;;
42282;SDS011;28237;47.954;21.730;2022-09-09T15:54:32;1.48;;;1.30;;
42282;SDS011;28237;47.954;21.730;2022-09-09T15:56:59;2.08;;;1.98;;
42282;SDS011;28237;47.954;21.730;2022-09-09T15:59:25;1.92;;;1.83;;
42282;SDS011;28237;47.954;21.730;2022-09-09T16:01:51;1.85;;;1.73;;
42282;SDS011;28237;47.954;21.730;2022-09-09T16:04:19;2.35;;;2.15;;
42282;SDS011;28237;47.954;21.730;2022-09-09T16:06:51;2.80;;;2.03;;
42282;SDS011;28237;47.954;21.730;2022-09-09T16:09:17;6.90;;;2.40;;
42282;SDS011;28237;47.954;21.730;2022-09-09T16:11:43;3.83;;;2.20;;
42282;SDS011;28237;47.954;21.730;2022-09-09T16:14:08;3.28;;;2.15;;
42282;SDS011;28237;47.954;21.730;2022-09-09T16:16:33;2.08;;;1.98;;
42282;SDS011;28237;47.954;21.730;2022-09-09T16:19:01;4.90;;;2.05;;
42282;SDS011;28237;47.954;21.730;2022-09-09T16:21:31;2.45;;;2.25;;
42282;SDS011;28237;47.954;21.730;2022-09-09T16:23:57;5.32;;;3.03;;
42282;SDS011;28237;47.954;21.730;2022-09-09T16:26:24;2.53;;;2.33;;
42282;SDS011;28237;47.954;21.730;2022-09-09T16:28:50;3.20;;;2.53;;
42282;SDS011;28237;47.954;21.730;2022-09-09T16:31:16;2.55;;;2.28;;